San Francisco, California
Traffic Map
Current Weather Conditions
San Francisco, California
Overcast
Overcast
57°
Feels Like: 57°
Wind Chill: 57° Ceiling: 900
Heat Index: 57° Visibility: 10mi
Dew Point: 52° Wind: 10mph
Humidity: 83% Direction: 260° (W)
Pressure: 29.93in Gusts: 0mph
Raw Report DataKSFO 281256Z 26009KT 10SM FEW007 BKN009 OVC012 14/11 A2993 RMK AO2 SLP134 T01390111
Traffic Incident Summary
Active as of:
Severity:
Category:
InformationThere was an issue retrieving the traffic information for this location. Please try a different location or try again shortly.
Advertisements
Track Severe Weather on mobile